Main page
METAR-TAF:

METAR-TAF

Airports :

Laval - Entrammes airport

Laval, France

latitude: 48-01-56N, longitude: 000-44-34W, elevation: 101 m

Current weather observation

The report was made 16 minutes ago, at 00:30 UTC
Wind 5 kt from the South/Southwest, varying between South and West/Southwest
Temperature 19°C
Humidity 94%
Pressure 1014 hPa
Visibility 10 km or more
Broken clouds at a height of 800 ft
Overcast at a height of 12000 ft

METAR: LFOV 140030Z AUTO 21005KT 180V240 9999 BKN008 OVC120 19/18 Q1014

Time: 02:46 (00:46 UTC)


TAF: missing

Weather observations and forecasts of more than 4000 airports (METAR and TAF reports).

The available stations are represented by yellow and red dots on the map.

Hover mouse over dot to see the name of the station.

Then click to see weather observations and forecasts.

To change the map : click on the green buttons with a black cross to zoom in, on the green button with a dash to zoom out, or on the green arrows for adjacent maps.


METAR-TAF: